Main page
Satellite images 15-day forecastsClimateMarine weather Cyclones Lightning AirportsFAQ Newsletter About
Weather : Europe Africa North America South America Asia Australia-Oceania Others
Languages Contact

Tehran, Iran

Mehrabad

latitude: 35-41N, longitude: 051-21E, elevation: 1204 m


METAR: OIII 251630Z 32006KT CAVOK 21/M08 Q1015 A3000 NOSIG
TAF: OIII 251100Z 2512/2618 19005MPS 7000 SKC FM251800 34004MPS BECMG 2601/2603 5000 HZ NSC BECMG 2607/2609 7000

Time: 20:12 (16:42 UTC)

Current weather observation

The report was made 12 minutes ago, at 16:30 UTC
Wind 6 kt from the Northwest
Temperature 21°C
Humidity 13%
Pressure 1016 hPa
Visibility 10 km or more
no clouds below 1500 m and no cumulonimbus

Change units

Forecast

The report was made 5 hours and 42 minutes ago, at 11:00 UTC
Forecast valid from 25 at 12 UTC to 26 at 18 UTC
Wind 10 kt from the South
Visibility: 7000 m
Clear sky
From 25 at 1800 UTC
Wind 8 kt from the North/Northwest
Becoming
from 26 at 01 UTC to 26 at 03 UTC
Visibility: 5000 m
haze
Becoming
from 26 at 07 UTC to 26 at 09 UTC
Visibility: 7000 m
The information on this site is subject to a disclaimer
Weather : Europe Africa North America South America Asia Australia-Oceania Others
Satellite images 15-day forecastsClimateMarine weather Cyclones Lightning AirportsFAQ Languages Contact Newsletter About